Time;durP1;ratioP1;P1;durP2;ratioP2;P2;SDS_P1;SDS_P2;PMS_P1;PMS_P2;Temp;Humidity;BMP_temperature;BMP_pressure;BME280_temperature;BME280_humidity;BME280_pressure;Samples;Min_cycle;Max_cycle;Signal;HPM_P1;HPM_P2
2022/06/25 00:01:22;;;;;;;1.63;1.43;;;22.40;77.50;;;;;;5074815;28;20453;-68
2022/06/25 00:03:49;;;;;;;1.47;1.30;;;22.40;77.80;;;;;;5074827;28;20467;-68
2022/06/25 00:06:15;;;;;;;1.47;1.37;;;22.30;78.20;;;;;;5074672;28;20519;-68
2022/06/25 00:08:44;;;;;;;1.77;1.20;;;22.30;78.60;;;;;;5074600;28;20468;-68
2022/06/25 00:12:31;;;;;;;6.40;1.87;;;22.30;78.70;;;;;;5074336;28;20934;-68
2022/06/25 00:14:03;;;;;;;2.93;1.57;;;22.30;79.00;;;;;;5073813;28;20465;-68
2022/06/25 00:16:31;;;;;;;1.70;1.60;;;22.20;79.20;;;;;;5075338;28;20451;-68
2022/06/25 00:18:58;;;;;;;2.03;1.60;;;22.20;79.40;;;;;;5074906;28;20436;-68
2022/06/25 00:21:25;;;;;;;8.00;1.50;;;22.10;79.80;;;;;;5074333;28;20452;-68
2022/06/25 00:23:52;;;;;;;2.57;1.57;;;22.00;80.20;;;;;;5073823;28;20973;-68
2022/06/25 00:26:19;;;;;;;3.07;1.70;;;21.90;80.50;;;;;;5074360;28;20471;-68
2022/06/25 00:28:46;;;;;;;3.53;1.60;;;21.90;81.20;;;;;;5074204;28;20476;-68
2022/06/25 00:31:13;;;;;;;2.93;1.87;;;21.90;81.40;;;;;;5074214;28;20448;-68
2022/06/25 00:33:41;;;;;;;6.87;2.40;;;21.90;81.80;;;;;;5074505;28;20471;-68
2022/06/25 00:36:07;;;;;;;3.73;1.87;;;21.90;81.80;;;;;;5074172;28;20455;-68
2022/06/25 00:38:34;;;;;;;3.30;2.00;;;21.80;82.20;;;;;;5074079;28;20449;-68
2022/06/25 00:41:03;;;;;;;2.30;1.93;;;21.80;82.20;;;;;;5074194;28;20474;-68
2022/06/25 00:43:30;;;;;;;2.03;1.53;;;21.80;82.40;;;;;;5073806;28;20993;-68
2022/06/25 00:45:57;;;;;;;5.80;2.03;;;21.80;82.40;;;;;;5074049;28;20455;-68
2022/06/25 00:48:24;;;;;;;5.80;2.00;;;21.80;82.60;;;;;;5073485;28;20448;-68
2022/06/25 00:50:53;;;;;;;8.13;2.07;;;21.80;82.70;;;;;;5074107;28;20959;-68
2022/06/25 00:53:21;;;;;;;5.50;1.73;;;21.80;83.00;;;;;;5073881;28;20461;-68
2022/06/25 00:55:49;;;;;;;5.20;1.97;;;21.70;83.10;;;;;;5073979;28;20444;-68
2022/06/25 00:58:22;;;;;;;4.13;1.90;;;21.70;83.40;;;;;;5073815;28;20820;-68
2022/06/25 01:00:49;;;;;;;4.03;2.23;;;21.60;83.50;;;;;;5073876;28;20773;-68
2022/06/25 01:03:16;;;;;;;5.27;2.00;;;21.60;83.40;;;;;;5074553;28;20469;-68
2022/06/25 01:05:43;;;;;;;5.27;1.90;;;21.60;83.50;;;;;;5074268;28;20519;-68
2022/06/25 01:08:11;;;;;;;4.80;1.97;;;21.60;84.00;;;;;;5074726;28;20441;-68
2022/06/25 01:10:38;;;;;;;8.00;1.70;;;21.50;83.80;;;;;;5074231;28;20480;-68
2022/06/25 01:13:05;;;;;;;4.70;1.70;;;21.50;84.20;;;;;;5073855;28;20476;-68
2022/06/25 01:15:32;;;;;;;4.00;2.10;;;21.50;84.10;;;;;;5073998;28;20964;-68
2022/06/25 01:17:59;;;;;;;2.33;1.47;;;21.50;84.20;;;;;;5074158;28;20440;-68
2022/06/25 01:20:27;;;;;;;2.97;2.07;;;21.50;84.30;;;;;;5074166;28;20440;-68
2022/06/25 01:22:56;;;;;;;3.97;1.80;;;21.50;84.40;;;;;;5073854;28;20438;-68
2022/06/25 01:25:23;;;;;;;6.53;1.90;;;21.60;84.20;;;;;;5074450;28;20444;-68
2022/06/25 01:27:50;;;;;;;3.80;2.20;;;21.60;84.00;;;;;;5074412;28;20467;-68
2022/06/25 01:30:17;;;;;;;6.90;1.77;;;21.50;83.80;;;;;;5074094;28;20477;-68
2022/06/25 01:32:43;;;;;;;4.57;2.17;;;21.60;83.90;;;;;;5074205;28;20866;-68
2022/06/25 01:35:10;;;;;;;2.10;1.80;;;21.60;83.90;;;;;;5073957;28;20444;-68
2022/06/25 01:37:37;;;;;;;2.50;1.80;;;21.60;83.80;;;;;;5074194;28;20437;-68
2022/06/25 01:40:07;;;;;;;4.20;1.77;;;21.60;83.60;;;;;;5073990;28;20449;-68
2022/06/25 01:45:18;;;;;;;2.93;1.73;;;21.60;83.10;;;;;;5073711;28;20471;-68
2022/06/25 01:47:45;;;;;;;4.43;1.97;;;21.60;83.00;;;;;;5076210;28;20448;-68
2022/06/25 01:50:13;;;;;;;3.30;2.00;;;21.60;83.00;;;;;;5077241;28;20479;-68
2022/06/25 01:52:40;;;;;;;2.93;1.90;;;21.60;83.00;;;;;;5077098;28;20453;-68
2022/06/25 01:55:09;;;;;;;2.30;1.80;;;21.60;82.60;;;;;;5076800;28;20488;-68
2022/06/25 01:57:36;;;;;;;3.08;1.80;;;21.60;82.70;;;;;;5076822;28;20469;-68
2022/06/25 02:00:05;;;;;;;1.77;1.40;;;21.60;82.50;;;;;;5077370;28;20203;-68
2022/06/25 02:02:32;;;;;;;4.50;2.40;;;21.60;82.50;;;;;;5076995;28;20460;-68
2022/06/25 02:04:58;;;;;;;6.60;2.13;;;21.60;82.30;;;;;;5077151;28;20468;-68
2022/06/25 02:07:25;;;;;;;4.03;1.67;;;21.60;82.40;;;;;;5077399;28;20452;-68
2022/06/25 02:09:52;;;;;;;3.90;1.53;;;21.60;83.10;;;;;;5076901;28;20996;-68
2022/06/25 02:12:20;;;;;;;4.60;1.90;;;21.70;82.40;;;;;;5077059;28;20452;-68
2022/06/25 02:14:47;;;;;;;6.30;1.90;;;21.70;82.20;;;;;;5076839;28;20839;-68
2022/06/25 02:17:14;;;;;;;3.88;1.90;;;21.60;82.30;;;;;;5076946;28;20438;-68
2022/06/25 02:19:41;;;;;;;4.00;2.13;;;21.70;82.40;;;;;;5077418;28;20209;-68
2022/06/25 02:22:07;;;;;;;3.00;2.10;;;21.70;82.50;;;;;;5077445;28;20448;-68
2022/06/25 02:24:34;;;;;;;3.00;1.90;;;21.70;82.30;;;;;;5077786;28;20525;-68
2022/06/25 02:27:01;;;;;;;3.77;2.03;;;21.70;82.30;;;;;;5077806;28;20448;-68
2022/06/25 02:29:29;;;;;;;5.27;2.20;;;21.60;82.20;;;;;;5077927;28;20476;-68
2022/06/25 02:31:56;;;;;;;3.67;1.73;;;21.70;82.50;;;;;;5076445;28;20451;-68
2022/06/25 02:34:23;;;;;;;3.40;1.80;;;21.70;82.50;;;;;;5076464;28;20464;-68
2022/06/25 02:36:50;;;;;;;2.90;2.00;;;21.70;82.40;;;;;;5076566;28;20448;-68
2022/06/25 02:39:17;;;;;;;6.70;2.10;;;21.70;82.10;;;;;;5076138;28;20445;-68
2022/06/25 02:41:44;;;;;;;7.53;2.30;;;21.70;82.00;;;;;;5076014;28;20973;-68
2022/06/25 02:44:11;;;;;;;4.53;2.10;;;21.70;82.10;;;;;;5075917;28;21003;-68
2022/06/25 02:46:39;;;;;;;4.07;1.90;;;21.70;82.20;;;;;;5076342;28;20445;-68
2022/06/25 02:49:06;;;;;;;1.87;1.67;;;21.70;82.20;;;;;;5076249;28;20457;-68
2022/06/25 02:51:33;;;;;;;3.60;2.43;;;21.70;82.10;;;;;;5076277;28;20433;-68
2022/06/25 02:54:00;;;;;;;3.23;1.97;;;21.70;82.20;;;;;;5075919;28;20477;-68
2022/06/25 02:59:11;;;;;;;3.63;2.20;;;21.70;82.40;;;;;;5075161;28;20400;-69
2022/06/25 03:01:39;;;;;;;5.23;1.97;;;21.60;83.30;;;;;;5076056;28;20449;-68
2022/06/25 03:04:06;;;;;;;2.17;1.73;;;21.60;82.60;;;;;;5075966;28;20813;-68
2022/06/25 03:06:32;;;;;;;3.60;1.93;;;21.60;82.80;;;;;;5076535;28;20799;-68
2022/06/25 03:08:59;;;;;;;2.30;1.70;;;21.60;82.90;;;;;;5075927;28;20445;-68
2022/06/25 03:11:26;;;;;;;1.87;1.70;;;21.60;83.00;;;;;;5075405;28;20953;-69
2022/06/25 03:13:53;;;;;;;2.17;1.70;;;21.60;82.90;;;;;;5075849;28;20463;-69
2022/06/25 03:16:19;;;;;;;3.03;2.27;;;21.60;83.30;;;;;;5075691;28;20441;-68
2022/06/25 03:18:49;;;;;;;2.50;1.90;;;21.50;83.50;;;;;;5075441;28;20803;-68
2022/06/25 03:21:15;;;;;;;4.37;2.23;;;21.40;84.00;;;;;;5075384;28;20452;-68
2022/06/25 03:23:42;;;;;;;3.87;2.80;;;21.30;84.60;;;;;;5075830;28;20471;-68
2022/06/25 03:26:09;;;;;;;2.37;2.17;;;21.30;85.00;;;;;;5075694;28;20455;-69
2022/06/25 03:28:36;;;;;;;2.60;2.40;;;21.20;85.60;;;;;;5075833;28;20440;-68
2022/06/25 03:31:03;;;;;;;4.30;2.30;;;21.10;86.20;;;;;;5075382;28;21011;-68
2022/06/25 03:33:30;;;;;;;2.57;2.20;;;21.00;86.80;;;;;;5075582;28;20456;-68
2022/06/25 03:35:58;;;;;;;5.77;2.20;;;20.90;87.30;;;;;;5075745;28;20447;-68
2022/06/25 03:38:25;;;;;;;3.93;2.17;;;20.80;87.70;;;;;;5075595;28;20796;-68
2022/06/25 03:41:32;;;;;;;8.17;2.90;;;20.70;88.20;;;;;;5075548;28;20960;-68
2022/06/25 03:43:39;;;;;;;4.10;2.00;;;20.60;88.90;;;;;;5075326;28;20465;-68
2022/06/25 03:46:07;;;;;;;7.40;2.80;;;20.60;89.00;;;;;;5075660;28;20552;-68
2022/06/25 03:48:34;;;;;;;2.63;2.10;;;20.50;89.30;;;;;;5075948;28;20453;-68
2022/06/25 03:51:02;;;;;;;5.67;2.53;;;20.60;89.70;;;;;;5076069;28;20472;-69
2022/06/25 03:53:28;;;;;;;4.30;3.07;;;20.60;89.80;;;;;;5074611;28;20465;-68
2022/06/25 03:55:55;;;;;;;5.10;2.60;;;20.60;89.80;;;;;;5074589;28;20959;-68
2022/06/25 03:58:22;;;;;;;4.90;2.63;;;20.50;90.10;;;;;;5074459;28;20937;-68
2022/06/25 04:00:49;;;;;;;5.47;2.53;;;20.50;90.20;;;;;;5074295;28;20444;-68
2022/06/25 04:03:15;;;;;;;4.80;2.00;;;20.40;90.30;;;;;;5074294;28;20467;-69
2022/06/25 04:05:42;;;;;;;9.47;2.60;;;20.40;90.20;;;;;;5074285;28;20455;-70
2022/06/25 04:08:10;;;;;;;3.50;2.20;;;20.50;90.40;;;;;;5073941;28;20441;-70
2022/06/25 04:10:37;;;;;;;5.60;2.80;;;20.50;90.40;;;;;;5073810;28;20480;-71
2022/06/25 04:13:04;;;;;;;3.20;1.83;;;20.50;90.20;;;;;;5074257;28;20464;-71
2022/06/25 04:15:33;;;;;;;3.30;2.20;;;20.50;90.30;;;;;;5074127;28;20445;-70
2022/06/25 04:18:00;;;;;;;2.67;2.43;;;20.50;90.30;;;;;;5074161;28;20847;-70
2022/06/25 04:20:26;;;;;;;3.90;2.10;;;20.60;90.30;;;;;;5074048;28;20448;-70
2022/06/25 04:22:53;;;;;;;3.53;2.33;;;20.60;90.40;;;;;;5073931;28;20441;-69
2022/06/25 04:25:21;;;;;;;7.07;2.87;;;20.60;90.30;;;;;;5073849;28;20954;-70
2022/06/25 04:30:33;;;;;;;5.67;3.20;;;20.50;90.60;;;;;;5074233;28;20498;-70
2022/06/25 04:32:59;;;;;;;6.80;2.53;;;20.50;90.50;;;;;;5073927;28;20438;-70
2022/06/25 04:35:26;;;;;;;2.50;2.30;;;20.60;90.50;;;;;;5073864;28;20452;-70
2022/06/25 04:37:53;;;;;;;8.83;3.00;;;20.60;90.90;;;;;;5073963;28;20463;-70
2022/06/25 04:40:21;;;;;;;4.63;2.50;;;20.60;90.50;;;;;;5073522;28;20452;-70
2022/06/25 04:42:48;;;;;;;2.63;1.93;;;20.60;90.40;;;;;;5073371;28;20448;-70
2022/06/25 04:45:15;;;;;;;2.63;2.43;;;20.60;90.30;;;;;;5073727;28;20819;-71
2022/06/25 04:47:42;;;;;;;7.30;2.30;;;20.70;90.50;;;;;;5073763;28;20444;-70
2022/06/25 04:50:10;;;;;;;7.00;2.37;;;20.60;90.40;;;;;;5073307;28;20480;-70
2022/06/25 04:52:37;;;;;;;7.17;2.43;;;20.70;90.20;;;;;;5073767;28;20443;-70
2022/06/25 04:55:04;;;;;;;12.40;3.50;;;20.70;90.40;;;;;;5073618;28;20496;-70
2022/06/25 04:57:32;;;;;;;4.87;2.60;;;20.70;90.70;;;;;;5073453;28;20429;-71
2022/06/25 04:59:59;;;;;;;2.77;2.33;;;20.70;90.60;;;;;;5075151;28;20941;-68
2022/06/25 05:02:26;;;;;;;4.40;2.30;;;20.70;90.50;;;;;;5075067;28;20440;-68
2022/06/25 05:04:52;;;;;;;4.23;2.33;;;20.70;90.50;;;;;;5074739;28;20465;-68
2022/06/25 05:07:19;;;;;;;5.90;2.27;;;20.70;90.50;;;;;;5074191;28;20475;-68
2022/06/25 05:09:46;;;;;;;3.20;2.90;;;20.80;90.50;;;;;;5074729;28;20818;-68
2022/06/25 05:13:11;;;;;;;2.90;2.20;;;20.80;90.40;;;;;;5073994;28;20448;-67
2022/06/25 05:15:02;;;;;;;2.50;2.00;;;20.90;90.20;;;;;;5073316;28;20460;-69
2022/06/25 05:17:29;;;;;;;4.10;2.50;;;20.90;90.20;;;;;;5073579;28;20467;-68
2022/06/25 05:19:56;;;;;;;4.13;2.80;;;20.90;90.20;;;;;;5073490;28;20856;-68
2022/06/25 05:22:24;;;;;;;6.67;2.77;;;20.90;89.90;;;;;;5075651;28;20444;-68
2022/06/25 05:24:51;;;;;;;5.50;2.20;;;20.90;89.90;;;;;;5077902;28;20464;-68
2022/06/25 05:27:18;;;;;;;6.20;2.03;;;20.90;89.80;;;;;;5077711;28;20789;-68
2022/06/25 05:29:44;;;;;;;4.43;2.27;;;21.00;89.60;;;;;;5077957;28;20813;-68
2022/06/25 05:32:12;;;;;;;4.80;2.43;;;21.10;90.10;;;;;;5077422;28;20445;-68
2022/06/25 05:34:39;;;;;;;6.53;3.47;;;21.10;90.10;;;;;;5077064;28;20456;-68
2022/06/25 05:37:07;;;;;;;9.90;2.40;;;21.20;90.10;;;;;;5077444;28;20448;-68
2022/06/25 05:39:34;;;;;;;6.10;2.70;;;21.30;90.20;;;;;;5077281;28;20453;-68
2022/06/25 05:42:00;;;;;;;4.53;2.20;;;21.30;90.10;;;;;;5077647;28;20441;-68
2022/06/25 05:44:27;;;;;;;8.70;2.80;;;21.40;90.20;;;;;;5077056;28;20830;-68
2022/06/25 05:46:54;;;;;;;6.80;3.27;;;21.40;89.50;;;;;;5077736;28;20429;-68
2022/06/25 05:49:22;;;;;;;4.53;1.97;;;21.40;88.20;;;;;;5077478;28;20521;-68
2022/06/25 05:51:49;;;;;;;7.70;3.53;;;21.50;87.30;;;;;;5077241;28;20517;-69
2022/06/25 05:54:16;;;;;;;3.43;2.13;;;21.60;86.40;;;;;;5076678;28;20938;-68
2022/06/25 05:56:43;;;;;;;6.77;2.27;;;21.60;86.10;;;;;;5076712;28;20444;-68
2022/06/25 05:59:10;;;;;;;6.67;2.10;;;21.70;85.60;;;;;;5076702;28;20459;-68
2022/06/25 06:01:37;;;;;;;3.13;2.50;;;21.80;85.20;;;;;;5076624;28;20822;-69
2022/06/25 06:04:05;;;;;;;3.90;2.27;;;21.90;84.70;;;;;;5076208;28;20468;-69
2022/06/25 06:06:33;;;;;;;4.60;2.43;;;22.00;84.20;;;;;;5076591;28;20476;-69
2022/06/25 06:08:59;;;;;;;9.80;3.27;;;22.00;83.40;;;;;;5076673;28;20448;-68
2022/06/25 06:11:26;;;;;;;5.47;2.47;;;22.10;82.40;;;;;;5076503;28;20488;-68
2022/06/25 06:13:53;;;;;;;4.27;2.00;;;22.30;82.00;;;;;;5076215;28;20974;-68
2022/06/25 06:16:20;;;;;;;7.33;1.87;;;22.30;81.70;;;;;;5076281;28;20448;-68
2022/06/25 06:18:46;;;;;;;12.50;2.40;;;22.40;80.60;;;;;;5076647;28;20456;-68
2022/06/25 06:21:13;;;;;;;3.57;2.07;;;22.50;79.30;;;;;;5076416;28;20444;-68
2022/06/25 06:23:41;;;;;;;3.03;1.70;;;22.50;78.40;;;;;;5076459;28;20465;-68
2022/06/25 06:26:08;;;;;;;4.80;1.90;;;22.50;77.40;;;;;;5076345;28;20444;-68
2022/06/25 06:28:35;;;;;;;5.10;2.37;;;22.60;78.00;;;;;;5076363;28;20441;-68
2022/06/25 06:31:01;;;;;;;4.90;2.00;;;22.60;77.20;;;;;;5076649;28;20472;-68
2022/06/25 06:33:28;;;;;;;5.97;2.30;;;22.70;77.20;;;;;;5076079;28;20475;-68
2022/06/25 06:35:55;;;;;;;4.57;2.13;;;22.80;76.80;;;;;;5075848;28;20809;-68
2022/06/25 06:38:22;;;;;;;9.67;2.30;;;22.80;75.50;;;;;;5075779;28;20452;-69
2022/06/25 06:40:50;;;;;;;8.17;1.90;;;22.90;75.00;;;;;;5076075;28;20444;-69
2022/06/25 06:43:16;;;;;;;4.73;1.50;;;22.90;75.00;;;;;;5075986;28;20464;-69
2022/06/25 06:45:43;;;;;;;6.90;1.43;;;23.10;74.90;;;;;;5076002;28;20471;-69
2022/06/25 06:48:10;;;;;;;1.90;1.40;;;23.10;72.90;;;;;;5075983;28;20448;-69
2022/06/25 06:50:37;;;;;;;4.27;1.40;;;23.10;73.10;;;;;;5075852;28;20484;-69
2022/06/25 06:53:03;;;;;;;3.23;1.63;;;23.20;72.00;;;;;;5075735;28;20517;-69
2022/06/25 06:55:30;;;;;;;6.17;1.40;;;23.20;71.90;;;;;;5075399;28;20820;-69
2022/06/25 06:57:58;;;;;;;3.07;1.47;;;23.30;71.50;;;;;;5075753;28;20445;-69
2022/06/25 07:00:25;;;;;;;2.40;1.20;;;23.40;71.70;;;;;;5075441;28;20830;-69
2022/06/25 07:02:52;;;;;;;2.70;1.37;;;23.50;71.50;;;;;;5075248;28;20829;-68
2022/06/25 07:05:18;;;;;;;5.47;1.50;;;23.60;70.70;;;;;;5075262;28;20983;-68
2022/06/25 07:07:47;;;;;;;3.17;1.13;;;23.60;70.00;;;;;;5075653;28;20444;-69
2022/06/25 07:10:14;;;;;;;5.40;1.30;;;23.60;69.30;;;;;;5075445;28;20445;-69
2022/06/25 07:12:41;;;;;;;2.70;1.13;;;23.80;69.10;;;;;;5075509;28;20447;-69
2022/06/25 07:15:10;;;;;;;3.80;1.30;;;23.80;68.80;;;;;;5075463;28;20478;-69
2022/06/25 07:17:37;;;;;;;2.87;1.20;;;23.90;68.10;;;;;;5075949;28;20456;-68
2022/06/25 07:20:06;;;;;;;2.10;1.20;;;24.00;65.60;;;;;;5076491;28;20444;-69
2022/06/25 07:22:33;;;;;;;2.20;1.00;;;24.10;64.30;;;;;;5076443;28;20807;-69
2022/06/25 07:25:00;;;;;;;2.27;1.10;;;24.20;63.60;;;;;;5076419;28;20464;-69
2022/06/25 07:27:26;;;;;;;1.67;0.77;;;24.30;62.90;;;;;;5076281;28;20441;-69
2022/06/25 07:29:53;;;;;;;2.97;0.97;;;24.40;63.50;;;;;;5076363;28;20920;-68
2022/06/25 07:32:21;;;;;;;5.03;1.20;;;24.50;61.90;;;;;;5075974;28;20460;-69
2022/06/25 07:34:48;;;;;;;2.77;1.70;;;24.50;61.40;;;;;;5076082;28;20461;-69
2022/06/25 07:37:15;;;;;;;2.73;1.00;;;24.50;61.30;;;;;;5076432;28;20459;-69
2022/06/25 07:39:42;;;;;;;1.37;0.80;;;24.50;63.60;;;;;;5076674;28;20449;-69
2022/06/25 07:42:09;;;;;;;3.77;1.23;;;24.60;61.60;;;;;;5076593;28;20559;-69
2022/06/25 07:44:36;;;;;;;1.73;1.00;;;24.70;62.00;;;;;;5076128;28;20460;-69
2022/06/25 07:47:04;;;;;;;6.10;1.10;;;24.70;61.30;;;;;;5077959;28;20440;-69
2022/06/25 07:51:56;;;;;;;1.70;1.00;;;24.80;62.70;;;;;;5078908;28;20435;-69
2022/06/25 07:52:17;;;;;;;4.63;1.50;;;25.00;62.60;;;;;;5078346;28;20493;-69
2022/06/25 07:54:44;;;;;;;4.73;1.00;;;25.20;62.10;;;;;;5074850;28;20488;-69
2022/06/25 07:57:11;;;;;;;3.00;0.90;;;25.30;60.60;;;;;;5074989;28;20210;-69
2022/06/25 07:59:38;;;;;;;2.60;0.97;;;25.50;59.70;;;;;;5074946;28;20445;-69
2022/06/25 08:02:05;;;;;;;4.57;1.07;;;25.60;58.50;;;;;;5075162;28;20440;-69
2022/06/25 08:04:33;;;;;;;1.47;0.90;;;25.70;58.60;;;;;;5075236;28;20473;-68
2022/06/25 08:06:59;;;;;;;3.13;1.00;;;25.90;57.70;;;;;;5075511;28;20436;-68
2022/06/25 08:09:26;;;;;;;3.33;1.07;;;26.00;57.30;;;;;;5074825;28;20527;-69
2022/06/25 08:11:53;;;;;;;2.10;1.00;;;26.20;57.00;;;;;;5074823;28;20476;-69
2022/06/25 08:14:20;;;;;;;2.80;1.00;;;26.20;55.50;;;;;;5074868;28;20460;-69
2022/06/25 08:16:47;;;;;;;2.60;1.20;;;26.40;55.20;;;;;;5074569;28;20452;-67
2022/06/25 08:19:13;;;;;;;5.37;0.80;;;26.40;55.40;;;;;;5074061;28;20452;-67
2022/06/25 08:21:42;;;;;;;2.83;0.87;;;26.40;54.50;;;;;;5074095;28;20455;-67
2022/06/25 08:24:08;;;;;;;5.00;1.20;;;26.60;55.50;;;;;;5073649;28;20464;-67
2022/06/25 08:26:35;;;;;;;6.37;1.10;;;26.80;55.10;;;;;;5074243;28;20451;-67
2022/06/25 08:29:02;;;;;;;3.17;1.50;;;26.90;53.60;;;;;;5073648;28;20946;-67
2022/06/25 08:31:29;;;;;;;2.47;0.90;;;27.00;53.50;;;;;;5073745;28;20567;-67
2022/06/25 08:33:56;;;;;;;5.00;1.30;;;27.20;53.50;;;;;;5073871;28;20468;-67
2022/06/25 08:36:23;;;;;;;3.00;1.07;;;27.30;53.00;;;;;;5073929;28;20440;-67
2022/06/25 08:38:51;;;;;;;3.03;1.37;;;27.50;51.70;;;;;;5073895;28;20425;-68
2022/06/25 08:41:19;;;;;;;3.97;1.20;;;27.60;51.40;;;;;;5073977;28;20444;-67
2022/06/25 08:43:46;;;;;;;4.03;0.90;;;27.80;51.00;;;;;;5073931;28;20487;-67
2022/06/25 08:46:15;;;;;;;2.47;1.17;;;27.90;50.90;;;;;;5074708;28;20444;-67
2022/06/25 08:48:45;;;;;;;3.50;1.10;;;28.00;50.00;;;;;;5073762;28;20794;-67
2022/06/25 08:51:12;;;;;;;5.03;1.30;;;28.20;49.50;;;;;;5073725;28;20475;-67
2022/06/25 08:53:40;;;;;;;4.50;1.50;;;28.30;48.50;;;;;;5073633;28;20846;-68
2022/06/25 08:56:09;;;;;;;1.83;1.40;;;28.50;47.50;;;;;;5073071;28;20860;-69
2022/06/25 08:58:37;;;;;;;3.80;1.53;;;28.70;47.30;;;;;;5074178;28;20445;-69
2022/06/25 09:01:04;;;;;;;2.57;1.10;;;28.90;46.20;;;;;;5073787;28;20479;-69
2022/06/25 09:03:30;;;;;;;4.50;1.47;;;29.20;46.10;;;;;;5073131;28;20840;-69
2022/06/25 09:06:11;;;;;;;3.93;1.60;;;29.50;45.60;;;;;;5073469;28;20449;-70
2022/06/25 09:08:38;;;;;;;4.43;1.60;;;29.80;46.30;;;;;;5073771;28;20437;-71
2022/06/25 09:11:05;;;;;;;3.20;1.33;;;29.90;43.30;;;;;;5073012;28;20848;-70
2022/06/25 09:13:33;;;;;;;3.20;1.10;;;29.80;43.80;;;;;;5073820;28;20463;-70
2022/06/25 09:16:00;;;;;;;1.37;0.80;;;29.80;43.70;;;;;;5073109;28;20958;-70
2022/06/25 09:18:27;;;;;;;3.67;1.37;;;29.60;43.70;;;;;;5073442;28;20443;-70
2022/06/25 09:20:59;;;;;;;5.77;1.60;;;29.80;43.60;;;;;;5073058;28;20961;-71
2022/06/25 09:23:26;;;;;;;6.40;1.73;;;30.00;43.90;;;;;;5073162;28;20839;-67
2022/06/25 09:26:05;;;;;;;5.50;1.53;;;30.00;41.50;;;;;;5073140;28;20453;-67
2022/06/25 09:28:35;;;;;;;3.03;1.37;;;30.40;40.80;;;;;;5073273;28;20440;-67
2022/06/25 09:31:02;;;;;;;4.60;1.30;;;30.80;40.00;;;;;;5073085;28;20495;-67
2022/06/25 09:33:30;;;;;;;3.17;1.70;;;31.10;39.90;;;;;;5072815;28;20498;-67
2022/06/25 09:35:57;;;;;;;5.63;1.47;;;31.10;39.50;;;;;;5073321;28;20439;-67
2022/06/25 09:38:24;;;;;;;5.10;1.60;;;31.20;39.30;;;;;;5072911;28;20782;-68
2022/06/25 09:40:54;;;;;;;5.40;1.67;;;31.30;40.00;;;;;;5073126;28;20424;-67
2022/06/25 09:43:22;;;;;;;4.97;1.60;;;31.40;40.40;;;;;;5073038;28;20475;-68
2022/06/25 09:45:52;;;;;;;4.50;1.30;;;31.40;39.30;;;;;;5073366;28;20425;-67
2022/06/25 09:48:21;;;;;;;2.80;1.40;;;31.30;39.00;;;;;;5072826;28;20429;-67
2022/06/25 09:51:06;;;;;;;3.00;1.40;;;31.30;38.10;;;;;;5073135;28;20455;-67
2022/06/25 09:53:34;;;;;;;4.60;1.30;;;31.50;37.90;;;;;;5072889;28;20458;-69
2022/06/25 09:56:02;;;;;;;3.90;1.30;;;31.90;37.30;;;;;;5073193;28;20424;-69
2022/06/25 09:58:31;;;;;;;3.30;1.33;;;32.40;36.40;;;;;;5072786;28;20916;-69
2022/06/25 10:01:00;;;;;;;2.90;1.40;;;32.80;34.60;;;;;;5072858;28;20427;-69
2022/06/25 10:03:30;;;;;;;5.33;1.33;;;33.10;34.50;;;;;;5073021;28;20467;-67
2022/06/25 10:05:58;;;;;;;3.50;1.60;;;33.40;33.50;;;;;;5072906;28;20443;-70
2022/06/25 10:08:27;;;;;;;3.03;1.63;;;33.50;32.80;;;;;;5075174;28;20537;-70
2022/06/25 10:10:55;;;;;;;1.77;1.20;;;33.70;33.00;;;;;;5076828;28;20432;-70
2022/06/25 10:13:24;;;;;;;4.30;1.70;;;34.10;32.60;;;;;;5076882;28;20480;-71
2022/06/25 10:15:52;;;;;;;3.60;1.50;;;34.40;31.90;;;;;;5076592;28;20428;-70
2022/06/25 10:18:20;;;;;;;4.43;1.43;;;34.60;31.30;;;;;;5076602;28;20503;-71
2022/06/25 10:20:47;;;;;;;2.33;1.67;;;34.80;30.20;;;;;;5076389;28;20443;-71
2022/06/25 10:23:15;;;;;;;5.73;1.70;;;35.30;30.60;;;;;;5076593;28;20456;-69
2022/06/25 10:25:43;;;;;;;2.90;1.50;;;35.90;29.50;;;;;;5077032;28;20444;-70
2022/06/25 10:28:12;;;;;;;1.87;1.37;;;36.30;28.20;;;;;;5077916;28;20439;-71
2022/06/25 10:30:45;;;;;;;2.00;1.17;;;36.50;28.30;;;;;;5078518;28;20440;-71
2022/06/25 10:33:12;;;;;;;2.60;1.37;;;36.80;28.60;;;;;;5078805;28;20245;-70
2022/06/25 10:35:41;;;;;;;2.53;1.23;;;37.00;27.40;;;;;;5076358;28;20202;-68
2022/06/25 10:38:09;;;;;;;3.30;0.90;;;37.00;27.50;;;;;;5076222;28;20436;-68
2022/06/25 10:40:49;;;;;;;3.20;1.57;;;36.70;27.30;;;;;;5076213;28;20202;-68
2022/06/25 10:43:46;;;;;;;5.70;1.53;;;36.30;27.80;;;;;;5076342;28;20218;-68
2022/06/25 10:46:27;;;;;;;3.10;1.00;;;36.00;28.50;;;;;;5015119;28;20453;-68
2022/06/25 10:48:58;;;;;;;6.10;1.40;;;36.30;28.10;;;;;;5067391;28;20460;-69
2022/06/25 10:51:31;;;;;;;4.93;1.57;;;36.70;28.40;;;;;;5076029;28;20447;-69
2022/06/25 10:53:58;;;;;;;2.40;1.30;;;36.70;28.70;;;;;;5075603;28;20616;-69
2022/06/25 10:56:25;;;;;;;3.90;1.30;;;36.60;28.00;;;;;;5075997;28;20470;-68
2022/06/25 10:58:52;;;;;;;2.33;1.40;;;36.40;28.80;;;;;;5075812;28;20436;-68
2022/06/25 11:01:29;;;;;;;4.50;1.50;;;37.00;27.10;;;;;;5076097;28;20440;-68
2022/06/25 11:03:58;;;;;;;1.93;1.00;;;37.30;27.00;;;;;;5075480;28;20221;-69
2022/06/25 11:06:29;;;;;;;4.40;1.20;;;37.00;26.50;;;;;;5075577;28;20651;-68
2022/06/25 11:09:05;;;;;;;2.00;1.30;;;36.50;27.00;;;;;;5075427;28;20832;-68
2022/06/25 11:11:34;;;;;;;2.43;1.20;;;35.70;28.10;;;;;;5075670;28;20457;-68
2022/06/25 11:14:03;;;;;;;2.43;1.30;;;35.10;29.20;;;;;;5075457;28;20468;-68
2022/06/25 11:16:29;;;;;;;3.80;1.43;;;34.70;30.20;;;;;;5075494;28;20428;-68
2022/06/25 11:18:58;;;;;;;2.70;1.33;;;34.40;30.00;;;;;;5074349;28;20848;-68
2022/06/25 11:21:27;;;;;;;3.33;1.77;;;34.20;30.50;;;;;;5075301;28;20441;-68
2022/06/25 11:23:54;;;;;;;3.77;1.50;;;34.10;31.30;;;;;;5075216;28;20478;-69
2022/06/25 11:29:07;;;;;;;4.90;1.70;;;34.30;32.30;;;;;;5075385;28;20420;-67
2022/06/25 11:31:35;;;;;;;2.73;1.47;;;34.40;31.10;;;;;;5075624;28;20432;-67
2022/06/25 11:34:02;;;;;;;3.00;1.40;;;34.30;32.40;;;;;;5075052;28;20478;-67
2022/06/25 11:36:33;;;;;;;3.00;1.30;;;34.30;31.20;;;;;;5075184;28;20479;-67
2022/06/25 11:38:59;;;;;;;2.50;1.53;;;34.40;31.20;;;;;;5075282;28;20433;-67
2022/06/25 11:41:30;;;;;;;3.00;1.57;;;34.40;31.70;;;;;;5075182;28;20446;-67
2022/06/25 11:44:04;;;;;;;3.57;1.30;;;34.70;31.70;;;;;;5074870;28;20503;-67
2022/06/25 11:46:34;;;;;;;2.20;1.70;;;35.00;30.50;;;;;;5074588;28;20795;-67
2022/06/25 11:49:04;;;;;;;2.00;1.50;;;35.40;29.80;;;;;;5074767;28;20451;-67
2022/06/25 11:51:31;;;;;;;1.97;1.57;;;35.70;29.10;;;;;;5074749;28;20838;-67
2022/06/25 11:54:04;;;;;;;2.77;1.27;;;35.80;28.70;;;;;;5074746;28;20486;-68
2022/06/25 11:56:32;;;;;;;5.03;1.47;;;35.70;28.10;;;;;;5074770;28;20432;-68
2022/06/25 11:58:59;;;;;;;3.37;1.40;;;35.40;28.70;;;;;;5074728;28;20440;-68
2022/06/25 12:01:29;;;;;;;4.03;1.50;;;35.10;29.30;;;;;;5074763;28;20455;-68
2022/06/25 12:03:56;;;;;;;3.60;1.47;;;34.90;29.40;;;;;;5074533;28;20468;-68
2022/06/25 12:06:23;;;;;;;4.00;1.43;;;34.70;29.60;;;;;;5074875;28;20435;-68
2022/06/25 12:08:50;;;;;;;1.80;1.50;;;34.50;30.00;;;;;;5074607;28;20432;-68
2022/06/25 12:11:17;;;;;;;3.53;1.60;;;34.40;29.70;;;;;;5074333;28;20443;-68
2022/06/25 12:13:46;;;;;;;3.10;1.47;;;34.20;29.70;;;;;;5074300;28;20490;-68
2022/06/25 12:16:12;;;;;;;5.87;1.40;;;34.10;30.40;;;;;;5074310;28;20955;-68
2022/06/25 12:18:41;;;;;;;1.20;1.10;;;33.90;31.10;;;;;;5074371;28;20812;-68
2022/06/25 12:21:09;;;;;;;3.97;2.20;;;33.70;31.50;;;;;;5074368;28;20447;-68
2022/06/25 12:23:54;;;;;;;2.90;1.20;;;33.50;32.00;;;;;;5074155;28;20456;-67
2022/06/25 12:26:28;;;;;;;2.23;1.40;;;33.40;32.30;;;;;;5074221;28;20432;-67
2022/06/25 12:29:08;;;;;;;2.10;1.40;;;33.30;32.10;;;;;;5073953;28;20436;-67
2022/06/25 12:31:34;;;;;;;2.27;1.20;;;33.10;32.40;;;;;;5073873;28;20428;-67
2022/06/25 12:34:02;;;;;;;3.07;1.30;;;32.90;32.60;;;;;;5073947;28;20483;-67
2022/06/25 12:36:29;;;;;;;2.87;1.20;;;32.80;32.50;;;;;;5074252;28;20436;-67
2022/06/25 12:38:56;;;;;;;1.53;1.00;;;32.70;33.00;;;;;;5073643;28;20804;-67
2022/06/25 12:41:42;;;;;;;3.00;1.40;;;32.50;32.50;;;;;;5073979;28;20428;-66
2022/06/25 12:44:14;;;;;;;3.23;1.10;;;32.50;34.10;;;;;;5073330;28;20464;-67
2022/06/25 12:46:41;;;;;;;2.93;1.20;;;32.50;33.30;;;;;;5074043;28;20441;-67
2022/06/25 12:49:11;;;;;;;2.33;1.30;;;32.70;34.30;;;;;;5073904;28;20436;-68
2022/06/25 12:51:38;;;;;;;1.80;1.23;;;32.90;33.90;;;;;;5073917;28;20432;-69
2022/06/25 12:54:05;;;;;;;2.60;1.40;;;32.90;32.90;;;;;;5073586;28;20490;-69
2022/06/25 12:56:32;;;;;;;4.10;1.60;;;32.70;33.00;;;;;;5073736;28;20444;-69
2022/06/25 12:58:59;;;;;;;6.63;1.47;;;32.70;33.70;;;;;;5073774;28;20452;-69
2022/06/25 13:01:29;;;;;;;5.83;1.80;;;32.60;33.90;;;;;;5073670;28;20840;-69
2022/06/25 13:03:56;;;;;;;1.40;1.30;;;32.60;34.00;;;;;;5073928;28;20464;-69